<?xml version="1.0" encoding="UTF-8" standalone="no" ?>
<gpx xmlns="http://www.topografix.com/GPX/1/1" xmlns:xsi="http://www.w3.org/2001/XMLSchema-instance" xsi:schemaLocation="http://www.topografix.com/GPX/1/1 http://www.topografix.com/GPX/1/1/gpx.xsd" version="1.1" creator="VisuGPX - https://www.visugpx.com">
  <metadata>
    <name>Aveilles - gieres</name>
    <desc><![CDATA[
]]></desc>
  </metadata>
  <trk>
    <name><![CDATA[11080060-La Motte gieres]]></name>
    <trkseg>
      <trkpt lat="44.96195" lon="5.74802">
        <ele>957</ele>
        <time>2020-03-05T12:37:05Z</time>
      </trkpt>
      <trkpt lat="44.96038" lon="5.74895">
        <ele>957</ele>
        <time>2020-03-05T12:37:45Z</time>
      </trkpt>
      <trkpt lat="44.9594" lon="5.74895">
        <ele>957</ele>
        <time>2020-03-05T12:38:08Z</time>
      </trkpt>
      <trkpt lat="44.9591" lon="5.74936">
        <ele>964</ele>
        <time>2020-03-05T12:38:17Z</time>
      </trkpt>
      <trkpt lat="44.96021" lon="5.75077">
        <ele>990</ele>
        <time>2020-03-05T12:38:52Z</time>
      </trkpt>
      <trkpt lat="44.96276" lon="5.75098">
        <ele>1015</ele>
        <time>2020-03-05T12:39:52Z</time>
      </trkpt>
      <trkpt lat="44.96242" lon="5.75162">
        <ele>1021</ele>
        <time>2020-03-05T12:40:05Z</time>
      </trkpt>
      <trkpt lat="44.96444" lon="5.75136">
        <ele>1040</ele>
        <time>2020-03-05T12:40:52Z</time>
      </trkpt>
      <trkpt lat="44.96337" lon="5.75312">
        <ele>1065</ele>
        <time>2020-03-05T12:41:31Z</time>
      </trkpt>
      <trkpt lat="44.96509" lon="5.75364">
        <ele>1096</ele>
        <time>2020-03-05T12:42:12Z</time>
      </trkpt>
      <trkpt lat="44.96158" lon="5.7554">
        <ele>1118</ele>
        <time>2020-03-05T12:43:39Z</time>
      </trkpt>
      <trkpt lat="44.96304" lon="5.75632">
        <ele>1142</ele>
        <time>2020-03-05T12:44:16Z</time>
      </trkpt>
      <trkpt lat="44.96502" lon="5.75796">
        <ele>1194</ele>
        <time>2020-03-05T12:45:10Z</time>
      </trkpt>
      <trkpt lat="44.96535" lon="5.75893">
        <ele>1213</ele>
        <time>2020-03-05T12:45:28Z</time>
      </trkpt>
      <trkpt lat="44.96541" lon="5.75977">
        <ele>1227</ele>
        <time>2020-03-05T12:45:42Z</time>
      </trkpt>
      <trkpt lat="44.96645" lon="5.76045">
        <ele>1245</ele>
        <time>2020-03-05T12:46:08Z</time>
      </trkpt>
      <trkpt lat="44.9689" lon="5.76038">
        <ele>1262</ele>
        <time>2020-03-05T12:47:06Z</time>
      </trkpt>
      <trkpt lat="44.97174" lon="5.75883">
        <ele>1265</ele>
        <time>2020-03-05T12:48:17Z</time>
      </trkpt>
      <trkpt lat="44.9747" lon="5.7596">
        <ele>1244</ele>
        <time>2020-03-05T12:49:27Z</time>
      </trkpt>
      <trkpt lat="44.97596" lon="5.76045">
        <ele>1242</ele>
        <time>2020-03-05T12:50:00Z</time>
      </trkpt>
      <trkpt lat="44.97803" lon="5.75988">
        <ele>1246</ele>
        <time>2020-03-05T12:50:49Z</time>
      </trkpt>
      <trkpt lat="44.97953" lon="5.76087">
        <ele>1227</ele>
        <time>2020-03-05T12:51:27Z</time>
      </trkpt>
      <trkpt lat="44.98315" lon="5.76233">
        <ele>1172</ele>
        <time>2020-03-05T12:52:55Z</time>
      </trkpt>
      <trkpt lat="44.98427" lon="5.76191">
        <ele>1152</ele>
        <time>2020-03-05T12:53:22Z</time>
      </trkpt>
      <trkpt lat="44.98716" lon="5.76241">
        <ele>1128</ele>
        <time>2020-03-05T12:54:30Z</time>
      </trkpt>
      <trkpt lat="44.98652" lon="5.76103">
        <ele>1116</ele>
        <time>2020-03-05T12:54:58Z</time>
      </trkpt>
      <trkpt lat="44.9873" lon="5.75955">
        <ele>1084</ele>
        <time>2020-03-05T12:55:28Z</time>
      </trkpt>
      <trkpt lat="44.98514" lon="5.75722">
        <ele>1047</ele>
        <time>2020-03-05T12:56:32Z</time>
      </trkpt>
      <trkpt lat="44.98323" lon="5.7549">
        <ele>1017</ele>
        <time>2020-03-05T12:57:30Z</time>
      </trkpt>
      <trkpt lat="44.98423" lon="5.7536">
        <ele>977</ele>
        <time>2020-03-05T12:58:02Z</time>
      </trkpt>
      <trkpt lat="44.98591" lon="5.75255">
        <ele>959</ele>
        <time>2020-03-05T12:58:45Z</time>
      </trkpt>
      <trkpt lat="44.98735" lon="5.75209">
        <ele>954</ele>
        <time>2020-03-05T12:59:19Z</time>
      </trkpt>
      <trkpt lat="44.98598" lon="5.74995">
        <ele>960</ele>
        <time>2020-03-05T13:00:07Z</time>
      </trkpt>
      <trkpt lat="44.98605" lon="5.74838">
        <ele>966</ele>
        <time>2020-03-05T13:00:33Z</time>
      </trkpt>
      <trkpt lat="44.98508" lon="5.74713">
        <ele>969</ele>
        <time>2020-03-05T13:01:04Z</time>
      </trkpt>
      <trkpt lat="44.98425" lon="5.74565">
        <ele>979</ele>
        <time>2020-03-05T13:01:35Z</time>
      </trkpt>
      <trkpt lat="44.98463" lon="5.74445">
        <ele>993</ele>
        <time>2020-03-05T13:01:57Z</time>
      </trkpt>
      <trkpt lat="44.9862" lon="5.74312">
        <ele>1027</ele>
        <time>2020-03-05T13:02:39Z</time>
      </trkpt>
      <trkpt lat="44.98696" lon="5.74374">
        <ele>1033</ele>
        <time>2020-03-05T13:03:00Z</time>
      </trkpt>
      <trkpt lat="44.98836" lon="5.74341">
        <ele>1047</ele>
        <time>2020-03-05T13:03:33Z</time>
      </trkpt>
      <trkpt lat="44.99154" lon="5.74361">
        <ele>1069</ele>
        <time>2020-03-05T13:04:47Z</time>
      </trkpt>
      <trkpt lat="44.99015" lon="5.74198">
        <ele>1082</ele>
        <time>2020-03-05T13:05:30Z</time>
      </trkpt>
      <trkpt lat="44.98977" lon="5.74073">
        <ele>1094</ele>
        <time>2020-03-05T13:05:52Z</time>
      </trkpt>
      <trkpt lat="44.98863" lon="5.73874">
        <ele>1110</ele>
        <time>2020-03-05T13:06:34Z</time>
      </trkpt>
      <trkpt lat="44.98733" lon="5.73733">
        <ele>1126</ele>
        <time>2020-03-05T13:07:13Z</time>
      </trkpt>
      <trkpt lat="44.98589" lon="5.73703">
        <ele>1137</ele>
        <time>2020-03-05T13:07:47Z</time>
      </trkpt>
      <trkpt lat="44.98497" lon="5.73611">
        <ele>1152</ele>
        <time>2020-03-05T13:08:13Z</time>
      </trkpt>
      <trkpt lat="44.98421" lon="5.73567">
        <ele>1156</ele>
        <time>2020-03-05T13:08:32Z</time>
      </trkpt>
      <trkpt lat="44.98372" lon="5.73389">
        <ele>1181</ele>
        <time>2020-03-05T13:09:04Z</time>
      </trkpt>
      <trkpt lat="44.98253" lon="5.73172">
        <ele>1207</ele>
        <time>2020-03-05T13:09:49Z</time>
      </trkpt>
      <trkpt lat="44.98407" lon="5.73276">
        <ele>1227</ele>
        <time>2020-03-05T13:10:29Z</time>
      </trkpt>
      <trkpt lat="44.98699" lon="5.73345">
        <ele>1267</ele>
        <time>2020-03-05T13:11:38Z</time>
      </trkpt>
      <trkpt lat="44.99035" lon="5.73363">
        <ele>1313</ele>
        <time>2020-03-05T13:12:57Z</time>
      </trkpt>
      <trkpt lat="44.99266" lon="5.73437">
        <ele>1344</ele>
        <time>2020-03-05T13:13:52Z</time>
      </trkpt>
      <trkpt lat="44.99582" lon="5.73603">
        <ele>1377</ele>
        <time>2020-03-05T13:15:11Z</time>
      </trkpt>
      <trkpt lat="44.99847" lon="5.73672">
        <ele>1425</ele>
        <time>2020-03-05T13:16:13Z</time>
      </trkpt>
      <trkpt lat="44.99941" lon="5.73769">
        <ele>1427</ele>
        <time>2020-03-05T13:16:41Z</time>
      </trkpt>
      <trkpt lat="45.00179" lon="5.73782">
        <ele>1462</ele>
        <time>2020-03-05T13:17:36Z</time>
      </trkpt>
      <trkpt lat="45.00271" lon="5.73835">
        <ele>1471</ele>
        <time>2020-03-05T13:17:59Z</time>
      </trkpt>
      <trkpt lat="45.00343" lon="5.73958">
        <ele>1474</ele>
        <time>2020-03-05T13:18:26Z</time>
      </trkpt>
      <trkpt lat="45.00527" lon="5.74057">
        <ele>1498</ele>
        <time>2020-03-05T13:19:12Z</time>
      </trkpt>
      <trkpt lat="45.00709" lon="5.74001">
        <ele>1504</ele>
        <time>2020-03-05T13:19:55Z</time>
      </trkpt>
      <trkpt lat="45.00834" lon="5.74029">
        <ele>1504</ele>
        <time>2020-03-05T13:20:25Z</time>
      </trkpt>
      <trkpt lat="45.00841" lon="5.73963">
        <ele>1515</ele>
        <time>2020-03-05T13:20:36Z</time>
      </trkpt>
      <trkpt lat="45.00978" lon="5.74011">
        <ele>1535</ele>
        <time>2020-03-05T13:21:09Z</time>
      </trkpt>
      <trkpt lat="45.01216" lon="5.74244">
        <ele>1558</ele>
        <time>2020-03-05T13:22:16Z</time>
      </trkpt>
      <trkpt lat="45.01415" lon="5.74404">
        <ele>1569</ele>
        <time>2020-03-05T13:23:10Z</time>
      </trkpt>
      <trkpt lat="45.01674" lon="5.74609">
        <ele>1539</ele>
        <time>2020-03-05T13:24:19Z</time>
      </trkpt>
      <trkpt lat="45.01876" lon="5.7467">
        <ele>1507</ele>
        <time>2020-03-05T13:25:07Z</time>
      </trkpt>
      <trkpt lat="45.02134" lon="5.74731">
        <ele>1459</ele>
        <time>2020-03-05T13:26:09Z</time>
      </trkpt>
      <trkpt lat="45.02371" lon="5.74757">
        <ele>1453</ele>
        <time>2020-03-05T13:27:04Z</time>
      </trkpt>
      <trkpt lat="45.0251" lon="5.74683">
        <ele>1434</ele>
        <time>2020-03-05T13:27:39Z</time>
      </trkpt>
      <trkpt lat="45.02567" lon="5.7457">
        <ele>1420</ele>
        <time>2020-03-05T13:28:02Z</time>
      </trkpt>
      <trkpt lat="45.02951" lon="5.74501">
        <ele>1383</ele>
        <time>2020-03-05T13:29:32Z</time>
      </trkpt>
      <trkpt lat="45.03271" lon="5.74527">
        <ele>1355</ele>
        <time>2020-03-05T13:30:47Z</time>
      </trkpt>
      <trkpt lat="45.03386" lon="5.74716">
        <ele>1345</ele>
        <time>2020-03-05T13:31:28Z</time>
      </trkpt>
      <trkpt lat="45.034" lon="5.74973">
        <ele>1327</ele>
        <time>2020-03-05T13:32:11Z</time>
      </trkpt>
      <trkpt lat="45.03447" lon="5.75093">
        <ele>1308</ele>
        <time>2020-03-05T13:32:33Z</time>
      </trkpt>
      <trkpt lat="45.03487" lon="5.75252">
        <ele>1287</ele>
        <time>2020-03-05T13:33:01Z</time>
      </trkpt>
      <trkpt lat="45.03453" lon="5.75384">
        <ele>1254</ele>
        <time>2020-03-05T13:33:24Z</time>
      </trkpt>
      <trkpt lat="45.03608" lon="5.75359">
        <ele>1258</ele>
        <time>2020-03-05T13:34:01Z</time>
      </trkpt>
      <trkpt lat="45.03846" lon="5.7528">
        <ele>1251</ele>
        <time>2020-03-05T13:34:58Z</time>
      </trkpt>
      <trkpt lat="45.03907" lon="5.75152">
        <ele>1248</ele>
        <time>2020-03-05T13:35:23Z</time>
      </trkpt>
      <trkpt lat="45.03907" lon="5.74981">
        <ele>1247</ele>
        <time>2020-03-05T13:35:51Z</time>
      </trkpt>
      <trkpt lat="45.03855" lon="5.74802">
        <ele>1239</ele>
        <time>2020-03-05T13:36:23Z</time>
      </trkpt>
      <trkpt lat="45.03765" lon="5.74726">
        <ele>1232</ele>
        <time>2020-03-05T13:36:48Z</time>
      </trkpt>
      <trkpt lat="45.03689" lon="5.74578">
        <ele>1225</ele>
        <time>2020-03-05T13:37:18Z</time>
      </trkpt>
      <trkpt lat="45.03792" lon="5.7467">
        <ele>1218</ele>
        <time>2020-03-05T13:37:47Z</time>
      </trkpt>
      <trkpt lat="45.03949" lon="5.74721">
        <ele>1203</ele>
        <time>2020-03-05T13:38:24Z</time>
      </trkpt>
      <trkpt lat="45.0405" lon="5.74887">
        <ele>1195</ele>
        <time>2020-03-05T13:39:00Z</time>
      </trkpt>
      <trkpt lat="45.04134" lon="5.74961">
        <ele>1181</ele>
        <time>2020-03-05T13:39:23Z</time>
      </trkpt>
      <trkpt lat="45.04118" lon="5.74859">
        <ele>1180</ele>
        <time>2020-03-05T13:39:41Z</time>
      </trkpt>
      <trkpt lat="45.04035" lon="5.74675">
        <ele>1178</ele>
        <time>2020-03-05T13:40:17Z</time>
      </trkpt>
      <trkpt lat="45.03929" lon="5.74496">
        <ele>1158</ele>
        <time>2020-03-05T13:40:55Z</time>
      </trkpt>
      <trkpt lat="45.03918" lon="5.74445">
        <ele>1152</ele>
        <time>2020-03-05T13:41:04Z</time>
      </trkpt>
      <trkpt lat="45.03848" lon="5.7382">
        <ele>1187</ele>
        <time>2020-03-05T13:42:48Z</time>
      </trkpt>
      <trkpt lat="45.03916" lon="5.73636">
        <ele>1204</ele>
        <time>2020-03-05T13:43:23Z</time>
      </trkpt>
      <trkpt lat="45.03925" lon="5.73572">
        <ele>1201</ele>
        <time>2020-03-05T13:43:33Z</time>
      </trkpt>
      <trkpt lat="45.041" lon="5.73432">
        <ele>1204</ele>
        <time>2020-03-05T13:44:20Z</time>
      </trkpt>
      <trkpt lat="45.04289" lon="5.73498">
        <ele>1233</ele>
        <time>2020-03-05T13:45:06Z</time>
      </trkpt>
      <trkpt lat="45.0458" lon="5.73529">
        <ele>1268</ele>
        <time>2020-03-05T13:46:14Z</time>
      </trkpt>
      <trkpt lat="45.04762" lon="5.73527">
        <ele>1265</ele>
        <time>2020-03-05T13:46:57Z</time>
      </trkpt>
      <trkpt lat="45.04904" lon="5.73595">
        <ele>1283</ele>
        <time>2020-03-05T13:47:32Z</time>
      </trkpt>
      <trkpt lat="45.04937" lon="5.7368">
        <ele>1283</ele>
        <time>2020-03-05T13:47:48Z</time>
      </trkpt>
      <trkpt lat="45.05158" lon="5.73657">
        <ele>1280</ele>
        <time>2020-03-05T13:48:39Z</time>
      </trkpt>
      <trkpt lat="45.05225" lon="5.73608">
        <ele>1268</ele>
        <time>2020-03-05T13:48:57Z</time>
      </trkpt>
      <trkpt lat="45.05249" lon="5.73672">
        <ele>1269</ele>
        <time>2020-03-05T13:49:09Z</time>
      </trkpt>
      <trkpt lat="45.05207" lon="5.7383">
        <ele>1259</ele>
        <time>2020-03-05T13:49:37Z</time>
      </trkpt>
      <trkpt lat="45.05164" lon="5.7396">
        <ele>1249</ele>
        <time>2020-03-05T13:50:00Z</time>
      </trkpt>
      <trkpt lat="45.05052" lon="5.74172">
        <ele>1238</ele>
        <time>2020-03-05T13:50:44Z</time>
      </trkpt>
      <trkpt lat="45.04984" lon="5.74287">
        <ele>1201</ele>
        <time>2020-03-05T13:51:09Z</time>
      </trkpt>
      <trkpt lat="45.04892" lon="5.7433">
        <ele>1203</ele>
        <time>2020-03-05T13:51:31Z</time>
      </trkpt>
      <trkpt lat="45.04832" lon="5.74397">
        <ele>1178</ele>
        <time>2020-03-05T13:51:49Z</time>
      </trkpt>
      <trkpt lat="45.04893" lon="5.74392">
        <ele>1157</ele>
        <time>2020-03-05T13:52:04Z</time>
      </trkpt>
      <trkpt lat="45.04821" lon="5.74514">
        <ele>1132</ele>
        <time>2020-03-05T13:52:30Z</time>
      </trkpt>
      <trkpt lat="45.04897" lon="5.74537">
        <ele>1094</ele>
        <time>2020-03-05T13:52:48Z</time>
      </trkpt>
      <trkpt lat="45.04881" lon="5.74624">
        <ele>1071</ele>
        <time>2020-03-05T13:53:03Z</time>
      </trkpt>
      <trkpt lat="45.05021" lon="5.74601">
        <ele>1022</ele>
        <time>2020-03-05T13:53:36Z</time>
      </trkpt>
      <trkpt lat="45.05084" lon="5.74547">
        <ele>1006</ele>
        <time>2020-03-05T13:53:53Z</time>
      </trkpt>
      <trkpt lat="45.05121" lon="5.74611">
        <ele>971</ele>
        <time>2020-03-05T13:54:07Z</time>
      </trkpt>
      <trkpt lat="45.05229" lon="5.74611">
        <ele>938</ele>
        <time>2020-03-05T13:54:32Z</time>
      </trkpt>
      <trkpt lat="45.05276" lon="5.74635">
        <ele>915</ele>
        <time>2020-03-05T13:54:43Z</time>
      </trkpt>
      <trkpt lat="45.05185" lon="5.74739">
        <ele>914</ele>
        <time>2020-03-05T13:55:11Z</time>
      </trkpt>
      <trkpt lat="45.05261" lon="5.7475">
        <ele>887</ele>
        <time>2020-03-05T13:55:29Z</time>
      </trkpt>
      <trkpt lat="45.05382" lon="5.74796">
        <ele>829</ele>
        <time>2020-03-05T13:55:58Z</time>
      </trkpt>
      <trkpt lat="45.05348" lon="5.74838">
        <ele>817</ele>
        <time>2020-03-05T13:56:08Z</time>
      </trkpt>
      <trkpt lat="45.05437" lon="5.74791">
        <ele>820</ele>
        <time>2020-03-05T13:56:31Z</time>
      </trkpt>
      <trkpt lat="45.05465" lon="5.7475">
        <ele>833</ele>
        <time>2020-03-05T13:56:40Z</time>
      </trkpt>
      <trkpt lat="45.05633" lon="5.74711">
        <ele>838</ele>
        <time>2020-03-05T13:57:20Z</time>
      </trkpt>
      <trkpt lat="45.0593" lon="5.7463">
        <ele>844</ele>
        <time>2020-03-05T13:58:30Z</time>
      </trkpt>
      <trkpt lat="45.06121" lon="5.74506">
        <ele>851</ele>
        <time>2020-03-05T13:59:19Z</time>
      </trkpt>
      <trkpt lat="45.06303" lon="5.74428">
        <ele>785</ele>
        <time>2020-03-05T14:00:04Z</time>
      </trkpt>
      <trkpt lat="45.06337" lon="5.74634">
        <ele>718</ele>
        <time>2020-03-05T14:00:39Z</time>
      </trkpt>
      <trkpt lat="45.06419" lon="5.7457">
        <ele>690</ele>
        <time>2020-03-05T14:01:01Z</time>
      </trkpt>
      <trkpt lat="45.06434" lon="5.74776">
        <ele>630</ele>
        <time>2020-03-05T14:01:35Z</time>
      </trkpt>
      <trkpt lat="45.06539" lon="5.74805">
        <ele>581</ele>
        <time>2020-03-05T14:02:00Z</time>
      </trkpt>
      <trkpt lat="45.06615" lon="5.74713">
        <ele>551</ele>
        <time>2020-03-05T14:02:23Z</time>
      </trkpt>
      <trkpt lat="45.06728" lon="5.7482">
        <ele>515</ele>
        <time>2020-03-05T14:02:55Z</time>
      </trkpt>
      <trkpt lat="45.06815" lon="5.74902">
        <ele>482</ele>
        <time>2020-03-05T14:03:19Z</time>
      </trkpt>
      <trkpt lat="45.06862" lon="5.75175">
        <ele>480</ele>
        <time>2020-03-05T14:04:06Z</time>
      </trkpt>
      <trkpt lat="45.06914" lon="5.75198">
        <ele>473</ele>
        <time>2020-03-05T14:04:18Z</time>
      </trkpt>
      <trkpt lat="45.07022" lon="5.75119">
        <ele>471</ele>
        <time>2020-03-05T14:04:47Z</time>
      </trkpt>
      <trkpt lat="45.07097" lon="5.75107">
        <ele>470</ele>
        <time>2020-03-05T14:05:04Z</time>
      </trkpt>
      <trkpt lat="45.0714" lon="5.75084">
        <ele>468</ele>
        <time>2020-03-05T14:05:15Z</time>
      </trkpt>
      <trkpt lat="45.07237" lon="5.75104">
        <ele>460</ele>
        <time>2020-03-05T14:05:38Z</time>
      </trkpt>
      <trkpt lat="45.07305" lon="5.75081">
        <ele>447</ele>
        <time>2020-03-05T14:05:54Z</time>
      </trkpt>
      <trkpt lat="45.07401" lon="5.75106">
        <ele>443</ele>
        <time>2020-03-05T14:06:17Z</time>
      </trkpt>
      <trkpt lat="45.07471" lon="5.75047">
        <ele>423</ele>
        <time>2020-03-05T14:06:36Z</time>
      </trkpt>
      <trkpt lat="45.07568" lon="5.74933">
        <ele>404</ele>
        <time>2020-03-05T14:07:06Z</time>
      </trkpt>
      <trkpt lat="45.0766" lon="5.74841">
        <ele>399</ele>
        <time>2020-03-05T14:07:32Z</time>
      </trkpt>
      <trkpt lat="45.07605" lon="5.74779">
        <ele>389</ele>
        <time>2020-03-05T14:07:48Z</time>
      </trkpt>
      <trkpt lat="45.07549" lon="5.74761">
        <ele>381</ele>
        <time>2020-03-05T14:08:02Z</time>
      </trkpt>
      <trkpt lat="45.07388" lon="5.74624">
        <ele>382</ele>
        <time>2020-03-05T14:08:46Z</time>
      </trkpt>
      <trkpt lat="45.07378" lon="5.74507">
        <ele>390</ele>
        <time>2020-03-05T14:09:05Z</time>
      </trkpt>
      <trkpt lat="45.07399" lon="5.74357">
        <ele>392</ele>
        <time>2020-03-05T14:09:30Z</time>
      </trkpt>
      <trkpt lat="45.07377" lon="5.74228">
        <ele>386</ele>
        <time>2020-03-05T14:09:52Z</time>
      </trkpt>
      <trkpt lat="45.07477" lon="5.74228">
        <ele>393</ele>
        <time>2020-03-05T14:10:15Z</time>
      </trkpt>
      <trkpt lat="45.07557" lon="5.74265">
        <ele>395</ele>
        <time>2020-03-05T14:10:35Z</time>
      </trkpt>
      <trkpt lat="45.07761" lon="5.74343">
        <ele>399</ele>
        <time>2020-03-05T14:11:24Z</time>
      </trkpt>
      <trkpt lat="45.07819" lon="5.74371">
        <ele>402</ele>
        <time>2020-03-05T14:11:39Z</time>
      </trkpt>
      <trkpt lat="45.07865" lon="5.74356">
        <ele>398</ele>
        <time>2020-03-05T14:11:50Z</time>
      </trkpt>
      <trkpt lat="45.07997" lon="5.74378">
        <ele>390</ele>
        <time>2020-03-05T14:12:21Z</time>
      </trkpt>
      <trkpt lat="45.0808" lon="5.7445">
        <ele>383</ele>
        <time>2020-03-05T14:12:44Z</time>
      </trkpt>
      <trkpt lat="45.08134" lon="5.7445">
        <ele>356</ele>
        <time>2020-03-05T14:12:56Z</time>
      </trkpt>
      <trkpt lat="45.08138" lon="5.74497">
        <ele>363</ele>
        <time>2020-03-05T14:13:04Z</time>
      </trkpt>
      <trkpt lat="45.08166" lon="5.74544">
        <ele>354</ele>
        <time>2020-03-05T14:13:14Z</time>
      </trkpt>
      <trkpt lat="45.0818" lon="5.74517">
        <ele>341</ele>
        <time>2020-03-05T14:13:20Z</time>
      </trkpt>
      <trkpt lat="45.08208" lon="5.74547">
        <ele>323</ele>
        <time>2020-03-05T14:13:28Z</time>
      </trkpt>
      <trkpt lat="45.08244" lon="5.74469">
        <ele>289</ele>
        <time>2020-03-05T14:13:43Z</time>
      </trkpt>
      <trkpt lat="45.08214" lon="5.74351">
        <ele>291</ele>
        <time>2020-03-05T14:14:04Z</time>
      </trkpt>
      <trkpt lat="45.08196" lon="5.74248">
        <ele>284</ele>
        <time>2020-03-05T14:14:21Z</time>
      </trkpt>
      <trkpt lat="45.08164" lon="5.7418">
        <ele>286</ele>
        <time>2020-03-05T14:14:35Z</time>
      </trkpt>
      <trkpt lat="45.08203" lon="5.74192">
        <ele>279</ele>
        <time>2020-03-05T14:14:44Z</time>
      </trkpt>
      <trkpt lat="45.08252" lon="5.7424">
        <ele>271</ele>
        <time>2020-03-05T14:14:58Z</time>
      </trkpt>
      <trkpt lat="45.0826" lon="5.74295">
        <ele>272</ele>
        <time>2020-03-05T14:15:07Z</time>
      </trkpt>
      <trkpt lat="45.08339" lon="5.74363">
        <ele>270</ele>
        <time>2020-03-05T14:15:29Z</time>
      </trkpt>
      <trkpt lat="45.08494" lon="5.74366">
        <ele>271</ele>
        <time>2020-03-05T14:16:05Z</time>
      </trkpt>
      <trkpt lat="45.08539" lon="5.74322">
        <ele>269</ele>
        <time>2020-03-05T14:16:18Z</time>
      </trkpt>
      <trkpt lat="45.08539" lon="5.74472">
        <ele>289</ele>
        <time>2020-03-05T14:16:43Z</time>
      </trkpt>
      <trkpt lat="45.08792" lon="5.7456">
        <ele>308</ele>
        <time>2020-03-05T14:17:43Z</time>
      </trkpt>
      <trkpt lat="45.08597" lon="5.74565">
        <ele>316</ele>
        <time>2020-03-05T14:18:29Z</time>
      </trkpt>
      <trkpt lat="45.08575" lon="5.74626">
        <ele>344</ele>
        <time>2020-03-05T14:18:40Z</time>
      </trkpt>
      <trkpt lat="45.08765" lon="5.74642">
        <ele>348</ele>
        <time>2020-03-05T14:19:25Z</time>
      </trkpt>
      <trkpt lat="45.08934" lon="5.74797">
        <ele>382</ele>
        <time>2020-03-05T14:20:12Z</time>
      </trkpt>
      <trkpt lat="45.08745" lon="5.74838">
        <ele>408</ele>
        <time>2020-03-05T14:20:56Z</time>
      </trkpt>
      <trkpt lat="45.09078" lon="5.7495">
        <ele>414</ele>
        <time>2020-03-05T14:22:16Z</time>
      </trkpt>
      <trkpt lat="45.09219" lon="5.74989">
        <ele>419</ele>
        <time>2020-03-05T14:22:50Z</time>
      </trkpt>
      <trkpt lat="45.09294" lon="5.74943">
        <ele>401</ele>
        <time>2020-03-05T14:23:09Z</time>
      </trkpt>
      <trkpt lat="45.09469" lon="5.75081">
        <ele>409</ele>
        <time>2020-03-05T14:23:56Z</time>
      </trkpt>
      <trkpt lat="45.09917" lon="5.75423">
        <ele>425</ele>
        <time>2020-03-05T14:25:55Z</time>
      </trkpt>
      <trkpt lat="45.0999" lon="5.75382">
        <ele>402</ele>
        <time>2020-03-05T14:26:13Z</time>
      </trkpt>
      <trkpt lat="45.102" lon="5.75481">
        <ele>384</ele>
        <time>2020-03-05T14:27:05Z</time>
      </trkpt>
      <trkpt lat="45.10332" lon="5.7556">
        <ele>368</ele>
        <time>2020-03-05T14:27:38Z</time>
      </trkpt>
      <trkpt lat="45.10407" lon="5.75596">
        <ele>361</ele>
        <time>2020-03-05T14:27:57Z</time>
      </trkpt>
      <trkpt lat="45.10553" lon="5.75813">
        <ele>375</ele>
        <time>2020-03-05T14:28:46Z</time>
      </trkpt>
      <trkpt lat="45.10778" lon="5.75897">
        <ele>379</ele>
        <time>2020-03-05T14:29:40Z</time>
      </trkpt>
      <trkpt lat="45.1078" lon="5.75953">
        <ele>384</ele>
        <time>2020-03-05T14:29:50Z</time>
      </trkpt>
      <trkpt lat="45.10735" lon="5.76012">
        <ele>394</ele>
        <time>2020-03-05T14:30:04Z</time>
      </trkpt>
      <trkpt lat="45.10775" lon="5.76099">
        <ele>404</ele>
        <time>2020-03-05T14:30:21Z</time>
      </trkpt>
      <trkpt lat="45.10924" lon="5.76173">
        <ele>423</ele>
        <time>2020-03-05T14:30:58Z</time>
      </trkpt>
      <trkpt lat="45.11127" lon="5.76008">
        <ele>401</ele>
        <time>2020-03-05T14:31:53Z</time>
      </trkpt>
      <trkpt lat="45.11197" lon="5.75887">
        <ele>391</ele>
        <time>2020-03-05T14:32:18Z</time>
      </trkpt>
      <trkpt lat="45.11409" lon="5.75669">
        <ele>396</ele>
        <time>2020-03-05T14:33:19Z</time>
      </trkpt>
      <trkpt lat="45.11518" lon="5.75536">
        <ele>393</ele>
        <time>2020-03-05T14:33:53Z</time>
      </trkpt>
      <trkpt lat="45.11557" lon="5.75059">
        <ele>386</ele>
        <time>2020-03-05T14:35:12Z</time>
      </trkpt>
      <trkpt lat="45.11793" lon="5.7475">
        <ele>383</ele>
        <time>2020-03-05T14:36:27Z</time>
      </trkpt>
      <trkpt lat="45.12581" lon="5.74445">
        <ele>408</ele>
        <time>2020-03-05T14:39:38Z</time>
      </trkpt>
      <trkpt lat="45.12544" lon="5.74712">
        <ele>423</ele>
        <time>2020-03-05T14:40:23Z</time>
      </trkpt>
      <trkpt lat="45.12629" lon="5.74651">
        <ele>425</ele>
        <time>2020-03-05T14:40:45Z</time>
      </trkpt>
      <trkpt lat="45.12732" lon="5.74724">
        <ele>440</ele>
        <time>2020-03-05T14:41:12Z</time>
      </trkpt>
      <trkpt lat="45.12805" lon="5.74823">
        <ele>454</ele>
        <time>2020-03-05T14:41:36Z</time>
      </trkpt>
      <trkpt lat="45.13083" lon="5.74699">
        <ele>421</ele>
        <time>2020-03-05T14:42:44Z</time>
      </trkpt>
      <trkpt lat="45.13241" lon="5.74823">
        <ele>401</ele>
        <time>2020-03-05T14:43:26Z</time>
      </trkpt>
      <trkpt lat="45.13236" lon="5.74907">
        <ele>405</ele>
        <time>2020-03-05T14:43:40Z</time>
      </trkpt>
      <trkpt lat="45.1306" lon="5.74958">
        <ele>415</ele>
        <time>2020-03-05T14:44:22Z</time>
      </trkpt>
      <trkpt lat="45.12975" lon="5.75078">
        <ele>416</ele>
        <time>2020-03-05T14:44:50Z</time>
      </trkpt>
      <trkpt lat="45.12844" lon="5.75249">
        <ele>403</ele>
        <time>2020-03-05T14:45:31Z</time>
      </trkpt>
      <trkpt lat="45.12727" lon="5.75428">
        <ele>376</ele>
        <time>2020-03-05T14:46:11Z</time>
      </trkpt>
      <trkpt lat="45.12718" lon="5.75502">
        <ele>369</ele>
        <time>2020-03-05T14:46:24Z</time>
      </trkpt>
      <trkpt lat="45.12828" lon="5.75645">
        <ele>357</ele>
        <time>2020-03-05T14:46:59Z</time>
      </trkpt>
      <trkpt lat="45.12804" lon="5.75739">
        <ele>360</ele>
        <time>2020-03-05T14:47:15Z</time>
      </trkpt>
      <trkpt lat="45.12862" lon="5.75849">
        <ele>369</ele>
        <time>2020-03-05T14:47:38Z</time>
      </trkpt>
      <trkpt lat="45.12833" lon="5.76096">
        <ele>367</ele>
        <time>2020-03-05T14:48:19Z</time>
      </trkpt>
      <trkpt lat="45.12882" lon="5.76303">
        <ele>370</ele>
        <time>2020-03-05T14:48:55Z</time>
      </trkpt>
      <trkpt lat="45.12995" lon="5.76476">
        <ele>374</ele>
        <time>2020-03-05T14:49:34Z</time>
      </trkpt>
      <trkpt lat="45.13294" lon="5.76709">
        <ele>373</ele>
        <time>2020-03-05T14:50:54Z</time>
      </trkpt>
      <trkpt lat="45.13414" lon="5.76785">
        <ele>368</ele>
        <time>2020-03-05T14:51:24Z</time>
      </trkpt>
      <trkpt lat="45.13573" lon="5.76823">
        <ele>364</ele>
        <time>2020-03-05T14:52:02Z</time>
      </trkpt>
      <trkpt lat="45.13623" lon="5.76892">
        <ele>360</ele>
        <time>2020-03-05T14:52:18Z</time>
      </trkpt>
      <trkpt lat="45.13631" lon="5.76952">
        <ele>358</ele>
        <time>2020-03-05T14:52:28Z</time>
      </trkpt>
      <trkpt lat="45.137" lon="5.77038">
        <ele>356</ele>
        <time>2020-03-05T14:52:50Z</time>
      </trkpt>
      <trkpt lat="45.13752" lon="5.77049">
        <ele>356</ele>
        <time>2020-03-05T14:53:02Z</time>
      </trkpt>
      <trkpt lat="45.13787" lon="5.77088">
        <ele>355</ele>
        <time>2020-03-05T14:53:12Z</time>
      </trkpt>
      <trkpt lat="45.13965" lon="5.77097">
        <ele>355</ele>
        <time>2020-03-05T14:53:54Z</time>
      </trkpt>
      <trkpt lat="45.14079" lon="5.77059">
        <ele>353</ele>
        <time>2020-03-05T14:54:21Z</time>
      </trkpt>
      <trkpt lat="45.14226" lon="5.77028">
        <ele>354</ele>
        <time>2020-03-05T14:54:56Z</time>
      </trkpt>
      <trkpt lat="45.14318" lon="5.77091">
        <ele>360</ele>
        <time>2020-03-05T14:55:20Z</time>
      </trkpt>
      <trkpt lat="45.1444" lon="5.77053">
        <ele>358</ele>
        <time>2020-03-05T14:55:49Z</time>
      </trkpt>
      <trkpt lat="45.14577" lon="5.76823">
        <ele>347</ele>
        <time>2020-03-05T14:56:39Z</time>
      </trkpt>
      <trkpt lat="45.14714" lon="5.76566">
        <ele>335</ele>
        <time>2020-03-05T14:57:32Z</time>
      </trkpt>
      <trkpt lat="45.14863" lon="5.76333">
        <ele>333</ele>
        <time>2020-03-05T14:58:23Z</time>
      </trkpt>
      <trkpt lat="45.14905" lon="5.76175">
        <ele>328</ele>
        <time>2020-03-05T14:58:51Z</time>
      </trkpt>
      <trkpt lat="45.15034" lon="5.76147">
        <ele>320</ele>
        <time>2020-03-05T14:59:22Z</time>
      </trkpt>
      <trkpt lat="45.1518" lon="5.76198">
        <ele>306</ele>
        <time>2020-03-05T14:59:57Z</time>
      </trkpt>
      <trkpt lat="45.1527" lon="5.76119">
        <ele>288</ele>
        <time>2020-03-05T15:00:22Z</time>
      </trkpt>
      <trkpt lat="45.15385" lon="5.76208">
        <ele>267</ele>
        <time>2020-03-05T15:00:52Z</time>
      </trkpt>
      <trkpt lat="45.15612" lon="5.76438">
        <ele>251</ele>
        <time>2020-03-05T15:01:57Z</time>
      </trkpt>
      <trkpt lat="45.15735" lon="5.76372">
        <ele>232</ele>
        <time>2020-03-05T15:02:28Z</time>
      </trkpt>
      <trkpt lat="45.15838" lon="5.76524">
        <ele>226</ele>
        <time>2020-03-05T15:03:03Z</time>
      </trkpt>
      <trkpt lat="45.16" lon="5.76633">
        <ele>221</ele>
        <time>2020-03-05T15:03:45Z</time>
      </trkpt>
      <trkpt lat="45.16199" lon="5.76765">
        <ele>232</ele>
        <time>2020-03-05T15:04:36Z</time>
      </trkpt>
      <trkpt lat="45.16286" lon="5.76821">
        <ele>235</ele>
        <time>2020-03-05T15:04:58Z</time>
      </trkpt>
      <trkpt lat="45.16453" lon="5.76821">
        <ele>232</ele>
        <time>2020-03-05T15:05:37Z</time>
      </trkpt>
      <trkpt lat="45.16668" lon="5.76862">
        <ele>228</ele>
        <time>2020-03-05T15:06:28Z</time>
      </trkpt>
      <trkpt lat="45.16768" lon="5.76855">
        <ele>226</ele>
        <time>2020-03-05T15:06:51Z</time>
      </trkpt>
      <trkpt lat="45.16818" lon="5.7682">
        <ele>221</ele>
        <time>2020-03-05T15:07:04Z</time>
      </trkpt>
      <trkpt lat="45.17183" lon="5.76874">
        <ele>224</ele>
        <time>2020-03-05T15:08:30Z</time>
      </trkpt>
      <trkpt lat="45.17283" lon="5.76994">
        <ele>229</ele>
        <time>2020-03-05T15:09:01Z</time>
      </trkpt>
      <trkpt lat="45.17294" lon="5.77091">
        <ele>242</ele>
        <time>2020-03-05T15:09:17Z</time>
      </trkpt>
      <trkpt lat="45.17456" lon="5.77512">
        <ele>287</ele>
        <time>2020-03-05T15:10:36Z</time>
      </trkpt>
      <trkpt lat="45.17501" lon="5.77556">
        <ele>278</ele>
        <time>2020-03-05T15:10:49Z</time>
      </trkpt>
      <trkpt lat="45.17584" lon="5.77558">
        <ele>250</ele>
        <time>2020-03-05T15:11:08Z</time>
      </trkpt>
      <trkpt lat="45.17647" lon="5.775">
        <ele>224</ele>
        <time>2020-03-05T15:11:25Z</time>
      </trkpt>
      <trkpt lat="45.1776" lon="5.77732">
        <ele>217</ele>
        <time>2020-03-05T15:12:12Z</time>
      </trkpt>
      <trkpt lat="45.17832" lon="5.77917">
        <ele>215</ele>
        <time>2020-03-05T15:12:47Z</time>
      </trkpt>
      <trkpt lat="45.17886" lon="5.78065">
        <ele>214</ele>
        <time>2020-03-05T15:13:14Z</time>
      </trkpt>
      <trkpt lat="45.17918" lon="5.78">
        <ele>213</ele>
        <time>2020-03-05T15:13:27Z</time>
      </trkpt>
      <trkpt lat="45.18072" lon="5.7812">
        <ele>216</ele>
        <time>2020-03-05T15:14:08Z</time>
      </trkpt>
      <trkpt lat="45.18126" lon="5.78128">
        <ele>216</ele>
        <time>2020-03-05T15:14:21Z</time>
      </trkpt>
      <trkpt lat="45.18164" lon="5.78134">
        <ele>216</ele>
        <time>2020-03-05T15:14:30Z</time>
      </trkpt>
      <trkpt lat="45.18159" lon="5.78236">
        <ele>217</ele>
        <time>2020-03-05T15:14:47Z</time>
      </trkpt>
      <trkpt lat="45.18175" lon="5.78351">
        <ele>217</ele>
        <time>2020-03-05T15:15:06Z</time>
      </trkpt>
      <trkpt lat="45.18201" lon="5.78364">
        <ele>218</ele>
        <time>2020-03-05T15:15:12Z</time>
      </trkpt>
      <trkpt lat="45.18243" lon="5.784">
        <ele>219</ele>
        <time>2020-03-05T15:15:24Z</time>
      </trkpt>
      <trkpt lat="45.18309" lon="5.78397">
        <ele>217</ele>
        <time>2020-03-05T15:15:39Z</time>
      </trkpt>
      <trkpt lat="45.18373" lon="5.78336">
        <ele>217</ele>
        <time>2020-03-05T15:15:57Z</time>
      </trkpt>
      <trkpt lat="45.18378" lon="5.78252">
        <ele>218</ele>
        <time>2020-03-05T15:16:11Z</time>
      </trkpt>
      <trkpt lat="45.18416" lon="5.7824">
        <ele>219</ele>
        <time>2020-03-05T15:16:20Z</time>
      </trkpt>
      <trkpt lat="45.18441" lon="5.78354">
        <ele>218</ele>
        <time>2020-03-05T15:16:40Z</time>
      </trkpt>
      <trkpt lat="45.18463" lon="5.78474">
        <ele>217</ele>
        <time>2020-03-05T15:17:00Z</time>
      </trkpt>
    </trkseg>
  </trk>
</gpx>